createdAt,value
2022-08-19T00:00:14.917Z,22.48
2022-08-19T00:02:47.031Z,22.49
2022-08-19T00:05:20.017Z,22.51
2022-08-19T00:07:48.230Z,22.52
2022-08-19T00:10:19.356Z,22.53
2022-08-19T00:12:47.326Z,22.51
2022-08-19T00:15:18.998Z,22.53
2022-08-19T00:17:49.444Z,22.53
2022-08-19T00:20:20.668Z,22.51
2022-08-19T00:22:49.223Z,22.48
2022-08-19T00:25:19.223Z,22.48
2022-08-19T00:27:58.588Z,22.51
2022-08-19T00:30:26.832Z,22.50
2022-08-19T00:32:56.070Z,22.49
2022-08-19T00:35:28.075Z,22.49
2022-08-19T00:37:57.369Z,22.46
2022-08-19T00:40:27.372Z,22.46
2022-08-19T00:42:55.746Z,22.47
2022-08-19T00:45:26.328Z,22.44
2022-08-19T00:47:56.407Z,22.45
2022-08-19T00:50:25.167Z,22.46
2022-08-19T00:52:54.466Z,22.45
2022-08-19T00:55:24.778Z,22.46
2022-08-19T00:57:58.390Z,22.49
2022-08-19T01:00:28.482Z,22.52
2022-08-19T01:02:58.849Z,22.54
2022-08-19T01:05:29.628Z,22.52
2022-08-19T01:07:59.058Z,22.51
2022-08-19T01:10:33.626Z,22.54
2022-08-19T01:13:06.798Z,22.56
2022-08-19T01:15:36.313Z,22.63
2022-08-19T01:18:10.262Z,22.57
2022-08-19T01:20:38.264Z,22.55
2022-08-19T01:23:07.783Z,22.52
2022-08-19T01:25:42.089Z,22.53
2022-08-19T01:28:11.229Z,22.52
2022-08-19T01:30:40.042Z,22.50
2022-08-19T01:33:12.590Z,22.52
2022-08-19T01:35:43.529Z,22.49
2022-08-19T01:38:22.708Z,22.52
2022-08-19T01:40:50.673Z,22.49
2022-08-19T01:43:19.980Z,22.55
2022-08-19T01:45:48.589Z,22.50
2022-08-19T01:48:16.812Z,22.53
2022-08-19T01:50:45.154Z,22.52
2022-08-19T01:53:14.492Z,22.53
2022-08-19T01:55:46.070Z,22.53
2022-08-19T01:58:17.978Z,22.52
2022-08-19T02:00:47.200Z,22.50
2022-08-19T02:03:15.291Z,22.50
2022-08-19T02:05:44.333Z,22.52
2022-08-19T02:08:12.339Z,22.50
2022-08-19T02:10:43.592Z,22.49
2022-08-19T02:13:12.469Z,22.55
2022-08-19T02:15:40.403Z,22.53
2022-08-19T02:18:09.243Z,22.51
2022-08-19T02:20:37.712Z,22.46
2022-08-19T02:23:05.989Z,22.43
2022-08-19T02:25:45.319Z,22.42
2022-08-19T02:28:18.293Z,22.40
2022-08-19T02:30:47.621Z,22.40
2022-08-19T02:33:15.986Z,22.40
2022-08-19T02:35:44.726Z,22.42
2022-08-19T02:38:27.573Z,22.40
2022-08-19T02:40:59.822Z,22.38
2022-08-19T02:43:29.820Z,22.36
2022-08-19T02:46:02.068Z,22.36
2022-08-19T02:48:30.173Z,22.37
2022-08-19T02:50:58.194Z,22.35
2022-08-19T02:53:29.720Z,22.35
2022-08-19T02:55:59.358Z,22.32
2022-08-19T02:58:28.264Z,22.30
2022-08-19T03:00:58.426Z,22.31
2022-08-19T03:03:28.988Z,22.29
2022-08-19T03:06:10.211Z,22.27
2022-08-19T03:08:39.835Z,22.26
2022-08-19T03:11:15.526Z,22.25
2022-08-19T03:13:44.174Z,22.23
2022-08-19T03:16:13.182Z,22.21
2022-08-19T03:18:41.409Z,22.16
2022-08-19T03:21:10.462Z,22.15
2022-08-19T03:23:41.059Z,22.13
2022-08-19T03:26:16.699Z,22.12
2022-08-19T03:28:51.397Z,22.10
2022-08-19T03:31:44.283Z,22.09
2022-08-19T03:34:13.392Z,22.08
2022-08-19T03:36:41.687Z,22.04
2022-08-19T03:39:10.393Z,22.00
2022-08-19T03:41:44.880Z,21.97
2022-08-19T03:44:18.533Z,21.94
2022-08-19T03:46:50.663Z,21.90
2022-08-19T03:49:19.841Z,21.83
2022-08-19T03:51:49.610Z,21.79
2022-08-19T03:54:19.504Z,21.70
2022-08-19T03:56:50.633Z,21.67
2022-08-19T03:59:20.831Z,21.63
2022-08-19T04:01:49.305Z,21.58
2022-08-19T04:04:17.332Z,21.54
2022-08-19T04:06:48.812Z,21.51
2022-08-19T04:09:17.452Z,21.51
2022-08-19T04:11:49.903Z,21.50
2022-08-19T04:14:21.681Z,21.50
2022-08-19T04:16:50.675Z,21.50
2022-08-19T04:19:20.457Z,21.49
2022-08-19T04:21:51.342Z,21.49
2022-08-19T04:24:20.625Z,21.48
2022-08-19T04:26:50.568Z,21.48
2022-08-19T04:29:23.154Z,21.49
2022-08-19T04:31:51.762Z,21.49
2022-08-19T04:34:23.464Z,21.51
2022-08-19T04:36:53.076Z,21.54
2022-08-19T04:39:44.837Z,21.56
2022-08-19T04:42:32.730Z,21.56
2022-08-19T04:45:01.125Z,21.56
2022-08-19T04:47:48.016Z,21.56
2022-08-19T04:50:19.554Z,21.56
2022-08-19T04:52:47.921Z,21.58
2022-08-19T04:55:15.964Z,21.57
2022-08-19T04:57:47.477Z,21.58
2022-08-19T05:00:15.832Z,21.61
2022-08-19T05:02:43.796Z,21.67
2022-08-19T05:05:11.890Z,21.69
2022-08-19T05:07:43.111Z,21.75
2022-08-19T05:10:12.495Z,21.78
2022-08-19T05:12:40.516Z,21.83
2022-08-19T05:15:12.601Z,21.84
2022-08-19T05:18:03.316Z,21.84
2022-08-19T05:20:48.928Z,21.87
2022-08-19T05:23:21.955Z,21.89
2022-08-19T05:25:52.593Z,21.93
2022-08-19T05:28:21.083Z,21.96
2022-08-19T05:30:51.867Z,21.99
2022-08-19T05:33:22.637Z,22.03
2022-08-19T05:35:51.297Z,22.07
2022-08-19T05:38:20.198Z,22.09
2022-08-19T05:40:49.084Z,22.10
2022-08-19T05:43:17.387Z,22.12
2022-08-19T05:45:46.025Z,22.16
2022-08-19T05:48:15.923Z,22.25
2022-08-19T05:50:45.326Z,22.30
2022-08-19T05:53:13.369Z,22.35
2022-08-19T05:55:41.324Z,22.37
2022-08-19T05:58:09.445Z,22.41
2022-08-19T06:00:38.169Z,22.43
2022-08-19T06:03:11.816Z,22.47
2022-08-19T06:05:49.498Z,22.47
2022-08-19T06:08:33.939Z,22.50
2022-08-19T06:11:19.930Z,22.56
2022-08-19T06:13:52.012Z,22.67
2022-08-19T06:16:31.091Z,22.75
2022-08-19T06:19:04.208Z,22.82
2022-08-19T06:21:33.872Z,22.91
2022-08-19T06:24:03.192Z,22.98
2022-08-19T06:26:31.428Z,23.07
2022-08-19T06:28:59.364Z,23.13
2022-08-19T06:31:34.311Z,23.20
2022-08-19T06:34:04.110Z,23.29
2022-08-19T06:36:36.507Z,23.37
2022-08-19T06:39:06.567Z,23.43
2022-08-19T06:41:41.042Z,23.52
2022-08-19T06:44:18.991Z,23.60
2022-08-19T06:46:53.651Z,23.67
2022-08-19T06:49:23.715Z,23.74
2022-08-19T06:51:53.009Z,23.86
2022-08-19T06:54:21.500Z,23.90
2022-08-19T06:56:49.580Z,23.98
2022-08-19T06:59:19.709Z,24.02
2022-08-19T07:01:50.588Z,24.07
2022-08-19T07:04:20.717Z,24.09
2022-08-19T07:06:55.335Z,24.10
2022-08-19T07:09:25.025Z,24.13
2022-08-19T07:11:55.018Z,24.16
2022-08-19T07:14:26.268Z,24.16
2022-08-19T07:16:58.135Z,24.20
2022-08-19T07:19:29.302Z,24.20
2022-08-19T07:21:57.783Z,24.26
2022-08-19T07:24:31.190Z,24.31
2022-08-19T07:27:06.775Z,24.32
2022-08-19T07:29:43.276Z,24.37
2022-08-19T07:32:13.484Z,24.44
2022-08-19T07:34:41.668Z,24.47
2022-08-19T07:37:10.973Z,24.60
2022-08-19T07:39:41.085Z,24.70
2022-08-19T07:42:13.413Z,24.80
2022-08-19T07:44:50.641Z,24.91
2022-08-19T07:47:47.415Z,25.09
2022-08-19T07:50:12.332Z,25.20
2022-08-19T07:52:41.261Z,25.23
2022-08-19T07:55:41.242Z,25.16
2022-08-19T07:58:00.509Z,25.12
2022-08-19T08:00:31.273Z,25.16
2022-08-19T08:02:59.285Z,25.19
2022-08-19T08:05:45.214Z,25.15
2022-08-19T08:08:31.178Z,25.07
2022-08-19T08:11:02.322Z,25.15
2022-08-19T08:13:30.554Z,25.21
2022-08-19T08:15:59.653Z,25.21
2022-08-19T08:18:30.525Z,25.21
2022-08-19T08:20:59.634Z,25.14
2022-08-19T08:23:29.542Z,25.08
2022-08-19T08:26:00.133Z,25.10
2022-08-19T08:28:30.596Z,25.07
2022-08-19T08:30:59.393Z,25.06
2022-08-19T08:33:34.613Z,25.09
2022-08-19T08:36:04.121Z,25.09
2022-08-19T08:38:38.454Z,25.17
2022-08-19T08:41:20.534Z,25.20
2022-08-19T08:43:54.565Z,25.32
2022-08-19T08:46:31.510Z,25.47
2022-08-19T08:49:08.421Z,25.68
2022-08-19T08:54:14.645Z,25.95
2022-08-19T08:56:45.394Z,26.09
2022-08-19T08:59:26.499Z,26.20
2022-08-19T09:01:54.679Z,26.33
2022-08-19T09:04:23.483Z,26.44
2022-08-19T09:06:58.622Z,26.57
2022-08-19T09:09:33.408Z,26.67
2022-08-19T09:12:11.734Z,26.79
2022-08-19T09:14:51.878Z,26.85
2022-08-19T09:17:29.003Z,26.91
2022-08-19T09:20:03.540Z,26.97
2022-08-19T09:22:32.976Z,27.01
2022-08-19T09:25:01.614Z,27.00
2022-08-19T09:27:42.032Z,27.03
2022-08-19T09:30:18.064Z,26.96
2022-08-19T09:32:46.690Z,26.93
2022-08-19T09:35:16.738Z,26.95
2022-08-19T09:37:45.111Z,26.99
2022-08-19T09:40:18.662Z,27.03
2022-08-19T09:42:52.658Z,27.01
2022-08-19T09:45:23.806Z,26.98
2022-08-19T09:47:55.203Z,26.95
2022-08-19T09:50:24.791Z,27.02
2022-08-19T09:52:57.716Z,26.93
2022-08-19T09:55:31.252Z,26.95
2022-08-19T09:58:02.407Z,26.99
2022-08-19T10:00:34.589Z,27.07
2022-08-19T10:03:02.644Z,27.19
2022-08-19T10:05:49.131Z,27.26
2022-08-19T10:08:18.619Z,27.34
2022-08-19T10:10:49.922Z,27.49
2022-08-19T10:13:22.820Z,27.63
2022-08-19T10:15:52.598Z,27.76
2022-08-19T10:18:23.742Z,27.97
2022-08-19T10:20:53.429Z,28.24
2022-08-19T10:23:22.240Z,28.46
2022-08-19T10:25:51.322Z,28.57
2022-08-19T10:28:19.717Z,28.66
2022-08-19T10:30:48.526Z,28.58
2022-08-19T10:33:38.619Z,28.36
2022-08-19T10:36:08.796Z,28.41
2022-08-19T10:38:36.913Z,28.51
2022-08-19T10:41:09.902Z,28.61
2022-08-19T10:43:39.276Z,28.77
2022-08-19T10:46:09.656Z,28.97
2022-08-19T10:48:46.819Z,29.22
2022-08-19T10:51:32.700Z,29.33
2022-08-19T10:54:02.713Z,29.33
2022-08-19T10:56:54.107Z,29.28
2022-08-19T10:59:26.913Z,29.09
2022-08-19T11:01:56.787Z,28.91
2022-08-19T11:04:28.876Z,28.84
2022-08-19T11:06:58.364Z,28.85
2022-08-19T11:09:33.618Z,28.94
2022-08-19T11:12:02.789Z,29.10
2022-08-19T11:14:34.767Z,29.30
2022-08-19T11:17:03.393Z,29.41
2022-08-19T11:19:35.190Z,29.37
2022-08-19T11:22:03.913Z,29.35
2022-08-19T11:24:33.649Z,29.30
2022-08-19T11:27:07.269Z,29.43
2022-08-19T11:29:36.056Z,29.49
2022-08-19T11:32:06.887Z,29.56
2022-08-19T11:34:36.608Z,29.58
2022-08-19T11:37:06.723Z,29.62
2022-08-19T11:39:36.322Z,29.59
2022-08-19T11:42:25.518Z,29.51
2022-08-19T11:44:56.571Z,29.56
2022-08-19T11:47:25.010Z,29.56
2022-08-19T11:49:54.353Z,29.55
2022-08-19T11:52:22.323Z,29.51
2022-08-19T11:54:50.463Z,29.33
2022-08-19T11:57:19.418Z,29.22
2022-08-19T11:59:51.491Z,29.26
2022-08-19T12:02:20.050Z,29.20
2022-08-19T12:04:48.327Z,29.41
2022-08-19T12:07:17.764Z,29.72
2022-08-19T12:09:45.948Z,29.93
2022-08-19T12:12:17.274Z,30.05
2022-08-19T12:14:46.229Z,30.13
2022-08-19T12:17:14.569Z,30.24
2022-08-19T12:19:42.486Z,30.36
2022-08-19T12:22:10.524Z,30.53
2022-08-19T12:24:40.013Z,30.68
2022-08-19T12:27:12.504Z,30.44
2022-08-19T12:29:42.325Z,30.16
2022-08-19T12:32:12.234Z,29.94
2022-08-19T12:34:43.405Z,29.99
2022-08-19T12:37:11.920Z,30.21
2022-08-19T12:39:43.329Z,30.42
2022-08-19T12:42:12.365Z,30.44
2022-08-19T12:44:42.710Z,30.44
2022-08-19T12:47:12.599Z,30.64
2022-08-19T12:49:54.203Z,30.77
2022-08-19T12:52:24.558Z,30.91
2022-08-19T12:54:56.042Z,30.81
2022-08-19T12:57:32.270Z,30.64
2022-08-19T13:00:05.301Z,30.58
2022-08-19T13:02:38.847Z,30.52
2022-08-19T13:05:10.708Z,30.27
2022-08-19T13:07:39.441Z,30.16
2022-08-19T13:10:12.046Z,30.15
2022-08-19T13:12:42.922Z,30.16
2022-08-19T13:15:12.244Z,30.23
2022-08-19T13:17:41.096Z,30.50
2022-08-19T13:20:11.969Z,30.92
2022-08-19T13:22:40.025Z,31.14
2022-08-19T13:25:10.718Z,31.40
2022-08-19T13:27:43.392Z,31.48
2022-08-19T13:30:31.318Z,31.57
2022-08-19T13:33:16.257Z,31.56
2022-08-19T13:35:48.551Z,31.33
2022-08-19T13:38:21.361Z,31.17
2022-08-19T13:40:52.432Z,31.14
2022-08-19T13:43:23.767Z,31.05
2022-08-19T13:45:57.405Z,31.01
2022-08-19T13:48:27.277Z,31.02
2022-08-19T13:50:57.726Z,31.03
2022-08-19T13:53:25.913Z,31.05
2022-08-19T13:55:55.476Z,31.07
2022-08-19T13:58:24.309Z,30.95
2022-08-19T14:00:52.334Z,30.77
2022-08-19T14:03:20.515Z,30.67
2022-08-19T14:05:48.625Z,30.65
2022-08-19T14:08:16.636Z,30.74
2022-08-19T14:10:45.631Z,30.67
2022-08-19T14:13:18.774Z,30.55
2022-08-19T14:15:48.176Z,30.44
2022-08-19T14:18:16.705Z,30.35
2022-08-19T14:20:44.883Z,30.25
2022-08-19T14:23:14.548Z,30.15
2022-08-19T14:25:42.573Z,30.01
2022-08-19T14:28:10.730Z,29.86
2022-08-19T14:30:40.123Z,29.73
2022-08-19T14:33:09.600Z,29.63
2022-08-19T14:35:38.433Z,29.59
2022-08-19T14:38:08.140Z,29.47
2022-08-19T14:40:36.143Z,29.48
2022-08-19T14:43:06.209Z,29.33
2022-08-19T14:45:37.241Z,29.41
2022-08-19T14:48:08.018Z,29.23
2022-08-19T14:50:40.493Z,29.24
2022-08-19T14:53:12.563Z,29.22
2022-08-19T14:55:44.096Z,29.24
2022-08-19T14:58:29.370Z,29.28
2022-08-19T15:01:00.990Z,29.33
2022-08-19T15:03:32.513Z,29.36
2022-08-19T15:06:02.216Z,29.43
2022-08-19T15:08:32.406Z,29.52
2022-08-19T15:11:02.831Z,29.58
2022-08-19T15:13:31.435Z,29.71
2022-08-19T15:16:00.034Z,29.84
2022-08-19T15:18:28.096Z,30.14
2022-08-19T15:20:57.796Z,30.65
2022-08-19T15:23:25.765Z,31.26
2022-08-19T15:25:55.802Z,31.80
2022-08-19T15:28:25.868Z,32.43
2022-08-19T15:30:54.576Z,33.00
2022-08-19T15:33:22.514Z,33.45
2022-08-19T15:35:54.033Z,33.64
2022-08-19T15:38:25.692Z,34.03
2022-08-19T15:41:15.801Z,34.47
2022-08-19T15:43:44.242Z,34.81
2022-08-19T15:46:12.245Z,34.95
2022-08-19T15:48:45.218Z,35.04
2022-08-19T15:51:25.496Z,34.87
2022-08-19T15:53:55.226Z,34.64
2022-08-19T15:56:27.207Z,34.32
2022-08-19T15:59:13.232Z,33.77
2022-08-19T16:02:03.959Z,33.17
2022-08-19T16:04:49.599Z,32.75
2022-08-19T16:07:22.347Z,32.36
2022-08-19T16:09:52.869Z,32.14
2022-08-19T16:12:21.202Z,31.91
2022-08-19T16:14:49.528Z,31.56
2022-08-19T16:17:17.583Z,31.35
2022-08-19T16:19:47.598Z,31.11
2022-08-19T16:22:19.603Z,30.91
2022-08-19T16:24:47.766Z,30.72
2022-08-19T16:27:17.791Z,30.57
2022-08-19T16:29:46.626Z,30.44
2022-08-19T16:32:14.892Z,30.38
2022-08-19T16:34:44.351Z,30.28
2022-08-19T16:37:12.312Z,30.24
2022-08-19T16:39:41.271Z,30.20
2022-08-19T16:42:13.963Z,30.10
2022-08-19T16:44:45.965Z,29.98
2022-08-19T16:47:15.212Z,29.93
2022-08-19T16:49:53.749Z,29.85
2022-08-19T16:52:26.190Z,29.79
2022-08-19T16:54:54.689Z,29.74
2022-08-19T16:57:23.785Z,29.72
2022-08-19T16:59:53.395Z,29.65
2022-08-19T17:02:23.643Z,29.55
2022-08-19T17:04:59.246Z,29.47
2022-08-19T17:07:28.049Z,29.38
2022-08-19T17:09:56.255Z,29.34
2022-08-19T17:12:30.643Z,29.27
2022-08-19T17:15:02.954Z,29.20
2022-08-19T17:17:32.148Z,29.15
2022-08-19T17:20:02.174Z,29.06
2022-08-19T17:22:30.262Z,29.02
2022-08-19T17:24:58.652Z,28.97
2022-08-19T17:27:32.087Z,28.91
2022-08-19T17:30:03.120Z,28.86
2022-08-19T17:32:34.874Z,28.82
2022-08-19T17:35:04.656Z,28.76
2022-08-19T17:37:32.949Z,28.73
2022-08-19T17:40:02.217Z,28.70
2022-08-19T17:42:30.364Z,28.67
2022-08-19T17:44:59.369Z,28.64
2022-08-19T17:47:29.726Z,28.61
2022-08-19T17:49:57.793Z,28.58
2022-08-19T17:52:26.000Z,28.53
2022-08-19T17:54:53.933Z,28.51
2022-08-19T17:57:22.094Z,28.47
2022-08-19T17:59:50.401Z,28.41
2022-08-19T18:02:21.424Z,28.34
2022-08-19T18:04:51.514Z,28.27
2022-08-19T18:07:21.571Z,28.20
2022-08-19T18:09:51.858Z,28.11
2022-08-19T18:12:26.598Z,28.05
2022-08-19T18:14:54.568Z,27.98
2022-08-19T18:17:23.285Z,27.91
2022-08-19T18:19:52.932Z,27.87
2022-08-19T18:22:27.202Z,27.82
2022-08-19T18:24:55.982Z,27.75
2022-08-19T18:27:23.967Z,27.67
2022-08-19T18:29:52.302Z,27.62
2022-08-19T18:32:23.805Z,27.56
2022-08-19T18:34:56.155Z,27.46
2022-08-19T18:37:26.269Z,27.37
2022-08-19T18:40:11.758Z,27.23
2022-08-19T18:43:00.981Z,27.08
2022-08-19T18:45:46.873Z,26.93
2022-08-19T18:48:32.301Z,26.81
2022-08-19T18:51:04.218Z,26.70
2022-08-19T18:53:34.517Z,26.63
2022-08-19T18:56:03.639Z,26.53
2022-08-19T18:58:34.326Z,26.41
2022-08-19T19:01:11.339Z,26.31
2022-08-19T19:03:45.811Z,26.19
2022-08-19T19:06:18.755Z,26.09
2022-08-19T19:08:46.867Z,26.01
2022-08-19T19:11:20.235Z,25.94
2022-08-19T19:13:49.521Z,25.86
2022-08-19T19:16:24.114Z,25.79
2022-08-19T19:18:52.950Z,25.74
2022-08-19T19:21:23.899Z,25.69
2022-08-19T19:23:53.118Z,25.64
2022-08-19T19:26:23.902Z,25.60
2022-08-19T19:28:52.855Z,25.55
2022-08-19T19:31:25.568Z,25.50
2022-08-19T19:33:54.372Z,25.47
2022-08-19T19:36:24.183Z,25.46
2022-08-19T19:38:52.874Z,25.50
2022-08-19T19:41:24.487Z,25.58
2022-08-19T19:44:29.417Z,25.66
2022-08-19T19:46:49.092Z,25.68
2022-08-19T19:49:19.536Z,25.74
2022-08-19T19:51:48.933Z,25.85
2022-08-19T19:54:21.747Z,25.90
2022-08-19T19:56:53.880Z,25.83
2022-08-19T19:59:22.797Z,25.80
2022-08-19T20:01:51.271Z,25.88
2022-08-19T20:04:22.599Z,25.82
2022-08-19T20:06:51.945Z,25.91
2022-08-19T20:09:19.889Z,25.81
2022-08-19T20:11:53.449Z,25.73
2022-08-19T20:14:23.811Z,25.84
2022-08-19T20:16:53.909Z,25.73
2022-08-19T20:19:25.995Z,25.64
2022-08-19T20:21:57.321Z,25.56
2022-08-19T20:24:28.002Z,25.55
2022-08-19T20:26:55.988Z,25.49
2022-08-19T20:29:39.527Z,25.48
2022-08-19T20:32:11.531Z,25.46
2022-08-19T20:34:40.112Z,25.53
2022-08-19T20:37:09.830Z,25.62
2022-08-19T20:39:38.280Z,25.54
2022-08-19T20:42:06.663Z,25.53
2022-08-19T20:44:34.932Z,25.49
2022-08-19T20:47:05.214Z,25.43
2022-08-19T20:49:33.235Z,25.44
2022-08-19T20:52:01.299Z,25.40
2022-08-19T20:54:30.877Z,25.26
2022-08-19T20:56:58.898Z,25.17
2022-08-19T20:59:27.019Z,25.22
2022-08-19T21:01:55.536Z,25.11
2022-08-19T21:04:23.576Z,25.10
2022-08-19T21:06:54.698Z,25.03
2022-08-19T21:09:22.744Z,24.96
2022-08-19T21:11:52.191Z,24.94
2022-08-19T21:14:20.390Z,24.93
2022-08-19T21:16:49.267Z,24.85
2022-08-19T21:19:19.033Z,24.78
2022-08-19T21:21:50.241Z,24.68
2022-08-19T21:24:18.192Z,24.62
2022-08-19T21:26:49.465Z,24.60
2022-08-19T21:29:21.089Z,24.52
2022-08-19T21:31:50.121Z,24.55
2022-08-19T21:34:18.501Z,24.53
2022-08-19T21:36:46.366Z,24.54
2022-08-19T21:39:14.360Z,24.44
2022-08-19T21:41:43.803Z,24.39
2022-08-19T21:44:11.806Z,24.40
2022-08-19T21:46:41.006Z,24.31
2022-08-19T21:49:09.043Z,24.22
2022-08-19T21:51:36.910Z,24.17
2022-08-19T21:54:07.317Z,24.20
2022-08-19T21:56:42.134Z,24.13
2022-08-19T21:59:10.061Z,24.07
2022-08-19T22:01:38.050Z,24.03
2022-08-19T22:04:07.416Z,23.98
2022-08-19T22:06:35.470Z,23.93
2022-08-19T22:09:09.244Z,23.90
2022-08-19T22:11:37.807Z,23.85
2022-08-19T22:14:05.744Z,23.79
2022-08-19T22:16:35.753Z,23.72
2022-08-19T22:19:03.756Z,23.64
2022-08-19T22:21:40.758Z,23.61
2022-08-19T22:24:10.368Z,23.61
2022-08-19T22:26:38.290Z,23.57
2022-08-19T22:29:07.479Z,23.52
2022-08-19T22:31:36.418Z,23.44
2022-08-19T22:34:05.039Z,23.36
2022-08-19T22:36:35.390Z,23.27
2022-08-19T22:39:04.091Z,23.22
2022-08-19T22:41:33.579Z,23.14
2022-08-19T22:44:01.832Z,23.09
2022-08-19T22:46:33.568Z,23.03
2022-08-19T22:49:01.773Z,22.94
2022-08-19T22:51:49.607Z,22.89
2022-08-19T22:54:19.063Z,22.81
2022-08-19T22:56:47.039Z,22.74
2022-08-19T22:59:15.043Z,22.71
2022-08-19T23:01:43.049Z,22.68
2022-08-19T23:04:11.569Z,22.66
2022-08-19T23:06:42.062Z,22.65
2022-08-19T23:09:10.913Z,22.65
2022-08-19T23:11:46.656Z,22.65
2022-08-19T23:14:16.159Z,22.65
2022-08-19T23:16:50.844Z,22.67
2022-08-19T23:19:19.670Z,22.69
2022-08-19T23:21:48.226Z,22.68
2022-08-19T23:24:16.162Z,22.66
2022-08-19T23:27:04.258Z,22.64
2022-08-19T23:29:51.210Z,22.61
2022-08-19T23:32:20.248Z,22.56
2022-08-19T23:34:48.637Z,22.51
2022-08-19T23:37:16.977Z,22.48
2022-08-19T23:39:45.466Z,22.44
2022-08-19T23:42:14.146Z,22.39
2022-08-19T23:44:51.663Z,22.34
2022-08-19T23:47:21.972Z,22.30
2022-08-19T23:49:50.569Z,22.27
2022-08-19T23:52:21.327Z,22.23
2022-08-19T23:54:49.351Z,22.16
2022-08-19T23:57:17.372Z,22.13
2022-08-19T23:59:48.888Z,22.08
